createdAt,value
2023-12-18T00:00:01.966Z,1004.0838
2023-12-18T00:01:02.128Z,1004.0127
2023-12-18T00:02:02.128Z,1004.3176
2023-12-18T00:03:02.332Z,1003.9285
2023-12-18T00:04:03.102Z,1004.1341
2023-12-18T00:05:01.469Z,1004.12
2023-12-18T00:06:01.500Z,1004.0559
2023-12-18T00:07:01.634Z,1004.0554
2023-12-18T00:08:01.752Z,1003.9704
2023-12-18T00:09:01.816Z,1004.1765
2023-12-18T00:10:01.938Z,1003.9141
2023-12-18T00:11:02.055Z,1003.9992
2023-12-18T00:12:02.215Z,1003.9856
2023-12-18T00:13:02.292Z,1004.0855
2023-12-18T00:14:01.377Z,1004.1562
2023-12-18T00:15:01.539Z,1003.9998
2023-12-18T00:16:01.549Z,1003.9005
2023-12-18T00:17:01.665Z,1004.1061
2023-12-18T00:18:02.010Z,1004.0419
2023-12-18T00:19:03.626Z,1003.9992
2023-12-18T00:20:05.218Z,1003.9426
2023-12-18T00:21:02.108Z,1004.0422
2023-12-18T00:22:03.823Z,1003.9788
2023-12-18T00:23:02.922Z,1003.9433
2023-12-18T00:24:01.424Z,1003.8722
2023-12-18T00:25:03.109Z,1004.1345
2023-12-18T00:26:03.261Z,1004.0009
2023-12-18T00:27:03.431Z,1004.0009
2023-12-18T00:28:03.403Z,1004.1858
2023-12-18T00:29:01.934Z,1003.9374
2023-12-18T00:30:02.064Z,1003.9873
2023-12-18T00:31:02.199Z,1004.044
2023-12-18T00:32:02.314Z,1003.8954
2023-12-18T00:33:03.156Z,1003.9454
2023-12-18T00:34:03.180Z,1004.1723
2023-12-18T00:35:03.180Z,1003.9454
2023-12-18T00:36:01.685Z,1004.0588
2023-12-18T00:37:03.436Z,1003.967
2023-12-18T00:38:01.871Z,1003.939
2023-12-18T00:39:03.673Z,1003.9958
2023-12-18T00:40:02.062Z,1004.0741
2023-12-18T00:41:03.831Z,1003.79
2023-12-18T00:42:02.973Z,1003.9103
2023-12-18T00:43:01.413Z,1004.0588
2023-12-18T00:44:01.486Z,1003.8524
2023-12-18T00:45:03.366Z,1003.8664
2023-12-18T00:46:01.699Z,1003.8592
2023-12-18T00:47:03.492Z,1003.9726
2023-12-18T00:48:02.041Z,1003.7448
2023-12-18T00:49:03.793Z,1003.6738
2023-12-18T00:50:07.113Z,1003.7022
2023-12-18T00:51:02.296Z,1003.6171
2023-12-18T00:52:01.308Z,1003.6874
2023-12-18T00:53:03.099Z,1003.6448
2023-12-18T00:54:03.262Z,1003.5382
2023-12-18T00:55:03.305Z,1003.4748
2023-12-18T00:56:03.464Z,1003.4891
2023-12-18T00:57:03.551Z,1003.7726
2023-12-18T00:58:03.603Z,1003.6383
2023-12-18T00:59:02.083Z,1003.4608
2023-12-18T01:00:02.300Z,1003.5038
2023-12-18T01:01:03.061Z,1003.4471
2023-12-18T01:02:01.393Z,1003.7448
2023-12-18T01:04:01.691Z,1003.7174
2023-12-18T01:05:01.826Z,1003.6891
2023-12-18T01:06:01.815Z,1003.6891
2023-12-18T01:07:01.907Z,1003.6603
2023-12-18T01:08:02.007Z,1003.6455
2023-12-18T01:09:02.167Z,1003.7453
2023-12-18T01:10:02.214Z,1003.6891
2023-12-18T01:11:01.281Z,1003.6531
2023-12-18T01:12:03.113Z,1003.7311
2023-12-18T01:13:03.154Z,1003.6888
2023-12-18T01:14:01.630Z,1003.6823
2023-12-18T01:15:01.747Z,1003.6891
2023-12-18T01:16:01.826Z,1003.6324
2023-12-18T01:17:01.914Z,1003.7605
2023-12-18T01:18:02.103Z,1003.6539
2023-12-18T01:19:02.202Z,1003.5122
2023-12-18T01:20:02.230Z,1003.7674
2023-12-18T01:21:01.359Z,1003.5757
2023-12-18T01:22:01.475Z,1003.6891
2023-12-18T01:23:04.610Z,1003.6324
2023-12-18T01:24:01.677Z,1003.6607
2023-12-18T01:25:01.751Z,1003.5552
2023-12-18T01:26:01.862Z,1003.6195
2023-12-18T01:27:02.062Z,1003.5492
2023-12-18T01:28:03.742Z,1003.4074
2023-12-18T01:29:02.172Z,1003.4638
2023-12-18T01:30:01.333Z,1003.6619
2023-12-18T01:31:01.499Z,1003.7118
2023-12-18T01:32:01.484Z,1003.4917
2023-12-18T01:33:01.646Z,1003.4925
2023-12-18T01:34:03.410Z,1003.3506
2023-12-18T01:35:01.773Z,1003.4146
2023-12-18T01:36:01.929Z,1003.4357
2023-12-18T01:37:01.988Z,1003.4925
2023-12-18T01:38:02.109Z,1003.471
2023-12-18T01:39:02.291Z,1003.4857
2023-12-18T01:40:01.333Z,1003.3506
2023-12-18T01:41:01.407Z,1003.3439
2023-12-18T01:42:03.239Z,1003.3506
2023-12-18T01:43:01.641Z,1003.5136
2023-12-18T01:44:01.738Z,1003.4354
2023-12-18T01:45:01.969Z,1003.5984
2023-12-18T01:46:01.956Z,1003.4917
2023-12-18T01:47:02.065Z,1003.378
2023-12-18T01:48:02.232Z,1003.5628
2023-12-18T01:49:02.388Z,1003.2101
2023-12-18T01:50:03.012Z,1003.3039
2023-12-18T01:51:01.544Z,1003.2388
2023-12-18T01:52:01.584Z,1003.379
2023-12-18T01:53:01.629Z,1003.4006
2023-12-18T01:54:01.813Z,1003.3582
2023-12-18T01:55:01.908Z,1003.2388
2023-12-18T01:56:02.154Z,1003.3934
2023-12-18T01:57:02.114Z,1003.3718
2023-12-18T01:58:02.182Z,1003.2456
2023-12-18T01:59:01.267Z,1003.3503
2023-12-18T02:00:01.421Z,1003.3467
2023-12-18T02:01:01.631Z,1003.3399
2023-12-18T02:02:03.272Z,1003.379
2023-12-18T02:03:01.745Z,1003.7406
2023-12-18T02:04:01.899Z,1003.3248
2023-12-18T02:05:01.951Z,1003.4917
2023-12-18T02:06:02.009Z,1003.4917
2023-12-18T02:07:03.757Z,1003.1666
2023-12-18T02:08:02.184Z,1003.3495
2023-12-18T02:09:01.438Z,1003.3169
2023-12-18T02:10:01.457Z,1003.2371
2023-12-18T02:11:01.515Z,1003.1732
2023-12-18T02:12:03.308Z,1003.0884
2023-12-18T02:13:03.401Z,1003.4917
2023-12-18T02:14:03.491Z,1003.3851
2023-12-18T02:15:02.041Z,1003.3851
2023-12-18T02:16:02.060Z,1003.3495
2023-12-18T02:17:02.172Z,1003.3169
2023-12-18T02:18:03.184Z,1003.2087
2023-12-18T02:19:01.409Z,1003.1021
2023-12-18T02:20:03.107Z,1003.2155
2023-12-18T02:21:01.615Z,1003.1585
2023-12-18T02:22:03.304Z,1003.2155
2023-12-18T02:23:01.832Z,1003.1803
2023-12-18T02:24:01.961Z,1003.2087
2023-12-18T02:25:02.010Z,1003.1021
2023-12-18T02:26:02.114Z,1002.9536
2023-12-18T02:27:02.251Z,1002.9327
2023-12-18T02:28:02.970Z,1002.8857
2023-12-18T02:29:01.430Z,1003.0103
2023-12-18T02:30:03.197Z,1002.9037
2023-12-18T02:31:03.331Z,1002.8897
2023-12-18T02:32:01.805Z,1002.9183
2023-12-18T02:33:03.578Z,1002.9467
2023-12-18T02:34:02.187Z,1002.9467
2023-12-18T02:35:02.222Z,1002.9324
2023-12-18T02:36:02.202Z,1003.2443
2023-12-18T02:37:01.300Z,1003.0601
2023-12-18T02:38:03.018Z,1003.0103
2023-12-18T02:39:03.147Z,1003.1021
2023-12-18T02:40:03.213Z,1002.8968
2023-12-18T02:41:01.683Z,1002.8433
2023-12-18T02:42:01.871Z,1002.9183
2023-12-18T02:43:02.008Z,1002.758
2023-12-18T02:44:03.687Z,1002.6586
2023-12-18T02:45:03.851Z,1002.7013
2023-12-18T02:46:02.237Z,1002.7015
2023-12-18T02:47:02.980Z,1002.6662
2023-12-18T02:48:01.565Z,1002.6027
2023-12-18T02:49:01.581Z,1002.7093
2023-12-18T02:50:03.318Z,1002.6454
2023-12-18T02:51:03.384Z,1002.7229
2023-12-18T02:52:01.868Z,1002.6308
2023-12-18T02:53:01.964Z,1002.5455
2023-12-18T02:54:02.134Z,1002.7015
2023-12-18T02:55:03.753Z,1002.7582
2023-12-18T02:56:02.880Z,1002.7156
2023-12-18T02:57:01.550Z,1002.6875
2023-12-18T02:58:03.111Z,1002.8012
2023-12-18T02:59:03.205Z,1002.7728
2023-12-18T03:00:01.851Z,1002.631
2023-12-18T03:01:03.490Z,1002.7728
2023-12-18T03:02:01.922Z,1002.7015
2023-12-18T03:03:02.111Z,1002.7651
2023-12-18T03:04:03.918Z,1002.7368
2023-12-18T03:05:03.891Z,1002.5667
2023-12-18T03:06:01.330Z,1002.6302
2023-12-18T03:07:01.396Z,1002.7436
2023-12-18T03:08:03.139Z,1002.5234
2023-12-18T03:09:03.335Z,1002.5094
2023-12-18T03:10:03.386Z,1002.6016
2023-12-18T03:11:01.848Z,1002.6016
2023-12-18T03:12:01.967Z,1002.6655
2023-12-18T03:13:02.028Z,1002.566
2023-12-18T03:14:02.135Z,1002.5586
2023-12-18T03:15:02.262Z,1002.6433
2023-12-18T03:16:01.344Z,1002.5723
2023-12-18T03:17:01.449Z,1002.6007
2023-12-18T03:18:01.643Z,1002.6291
2023-12-18T03:19:03.389Z,1002.5374
2023-12-18T03:20:01.776Z,1002.6012
2023-12-18T03:21:01.844Z,1002.495
2023-12-18T03:22:02.012Z,1002.5302
2023-12-18T03:23:02.069Z,1002.3388
2023-12-18T03:24:02.219Z,1002.6007
2023-12-18T03:25:01.265Z,1002.2752
2023-12-18T03:26:01.345Z,1002.4028
2023-12-18T03:27:01.481Z,1002.3107
2023-12-18T03:28:01.576Z,1002.4885
2023-12-18T03:29:01.634Z,1002.1764
2023-12-18T03:30:03.465Z,1002.2898
2023-12-18T03:31:03.600Z,1002.4034
2023-12-18T03:32:01.988Z,1002.3751
2023-12-18T03:33:03.922Z,1002.29
2023-12-18T03:34:04.052Z,1002.3751
2023-12-18T03:35:01.305Z,1002.1767
2023-12-18T03:36:01.448Z,1002.3748
2023-12-18T03:37:03.156Z,1002.2259
2023-12-18T03:38:03.208Z,1002.2403
2023-12-18T03:39:01.715Z,1002.1555
2023-12-18T03:40:01.856Z,1002.1197
2023-12-18T03:41:01.959Z,1002.3751
2023-12-18T03:42:03.728Z,1002.4034
2023-12-18T03:43:02.182Z,1002.3894
2023-12-18T03:44:02.259Z,1002.3966
2023-12-18T03:45:01.365Z,1002.4745
2023-12-18T03:46:01.475Z,1002.3611
2023-12-18T03:47:01.546Z,1002.6446
2023-12-18T03:48:01.791Z,1002.4034
2023-12-18T03:49:01.880Z,1002.4034
2023-12-18T03:50:01.944Z,1002.4034
2023-12-18T03:51:01.973Z,1002.4034
2023-12-18T03:52:03.720Z,1002.4034
2023-12-18T03:53:02.214Z,1002.3393
2023-12-18T03:54:01.280Z,1002.3537
2023-12-18T03:55:01.447Z,1002.2614
2023-12-18T03:56:01.532Z,1002.2755
2023-12-18T03:57:01.624Z,1002.2826
2023-12-18T03:58:01.768Z,1002.3467
2023-12-18T03:59:01.866Z,1002.4034
2023-12-18T04:00:01.966Z,1002.205
2023-12-18T04:01:02.153Z,1002.3181
2023-12-18T04:02:02.146Z,1002.4034
2023-12-18T04:03:01.278Z,1002.1838
2023-12-18T04:04:01.490Z,1002.2264
2023-12-18T04:05:01.501Z,1002.3611
2023-12-18T04:06:03.295Z,1002.3399
2023-12-18T04:07:01.659Z,1002.4321
2023-12-18T04:08:01.788Z,1002.3543
2023-12-18T04:09:01.870Z,1002.3472
2023-12-18T04:10:01.965Z,1002.3682
2023-12-18T04:11:02.117Z,1002.3115
2023-12-18T04:12:03.960Z,1002.2832
2023-12-18T04:13:01.292Z,1002.3611
2023-12-18T04:14:01.389Z,1002.2898
2023-12-18T04:15:01.517Z,1002.4882
2023-12-18T04:16:01.592Z,1002.2898
2023-12-18T04:17:01.705Z,1002.4601
2023-12-18T04:18:01.908Z,1002.4816
2023-12-18T04:19:02.006Z,1002.439
2023-12-18T04:20:01.995Z,1002.4745
2023-12-18T04:21:02.150Z,1002.3329
2023-12-18T04:22:02.283Z,1002.3754
2023-12-18T04:23:01.331Z,1002.3966
2023-12-18T04:24:03.098Z,1002.546
2023-12-18T04:25:01.538Z,1002.3827
2023-12-18T04:26:01.661Z,1002.5319
2023-12-18T04:27:03.464Z,1002.4609
2023-12-18T04:28:01.857Z,1002.4609
2023-12-18T04:29:01.977Z,1002.6314
2023-12-18T04:30:02.118Z,1002.6528
2023-12-18T04:31:03.954Z,1002.4119
2023-12-18T04:32:02.945Z,1002.5465
2023-12-18T04:33:01.526Z,1002.6244
2023-12-18T04:34:03.235Z,1002.6245
2023-12-18T04:35:03.241Z,1002.6526
2023-12-18T04:36:01.722Z,1002.5958
2023-12-18T04:37:03.505Z,1002.6809
2023-12-18T04:38:03.608Z,1002.7445
2023-12-18T04:39:02.020Z,1002.7728
2023-12-18T04:40:02.155Z,1002.7728
2023-12-18T04:41:02.272Z,1002.6448
2023-12-18T04:42:03.009Z,1002.6305
2023-12-18T04:43:01.476Z,1002.7368
2023-12-18T04:44:03.224Z,1002.6591
2023-12-18T04:45:01.693Z,1002.7229
2023-12-18T04:46:01.783Z,1002.7796
2023-12-18T04:47:03.534Z,1002.9042
2023-12-18T04:48:02.008Z,1002.8857
2023-12-18T04:49:02.154Z,1002.9464
2023-12-18T04:50:02.259Z,1002.8854
2023-12-18T04:51:01.306Z,1002.9885
2023-12-18T04:52:03.037Z,1002.9029
2023-12-18T04:53:03.129Z,1003.0867
2023-12-18T04:54:03.258Z,1003.0725
2023-12-18T04:55:03.364Z,1003.0157
2023-12-18T04:56:01.824Z,1003.2209
2023-12-18T04:57:01.929Z,1003.1499
2023-12-18T04:58:02.027Z,1003.0713
2023-12-18T04:59:02.165Z,1003.149
2023-12-18T05:00:02.268Z,1002.9077
2023-12-18T05:01:03.133Z,1002.8869
2023-12-18T05:02:03.129Z,1002.9786
2023-12-18T05:03:01.604Z,1003.0777
2023-12-18T05:04:03.388Z,1003.1414
2023-12-18T05:05:03.490Z,1003.1625
2023-12-18T05:06:03.517Z,1003.0134
2023-12-18T05:07:01.942Z,1003.2393
2023-12-18T05:08:03.741Z,1003.0974
2023-12-18T05:09:02.167Z,1003.2243
2023-12-18T05:10:01.312Z,1003.3503
2023-12-18T05:11:01.402Z,1003.1387
2023-12-18T05:12:01.498Z,1003.3779
2023-12-18T05:13:03.276Z,1003.3382
2023-12-18T05:14:01.700Z,1003.1874
2023-12-18T05:15:03.890Z,1003.4477
2023-12-18T05:16:01.943Z,1003.1723
2023-12-18T05:17:02.004Z,1003.0868
2023-12-18T05:18:02.219Z,1003.3148
2023-12-18T05:19:03.914Z,1003.1506
2023-12-18T05:20:01.328Z,1003.1155
2023-12-18T05:21:01.434Z,1002.988
2023-12-18T05:22:01.573Z,1002.8072
2023-12-18T05:23:01.638Z,1002.8827
2023-12-18T05:24:01.742Z,1002.9751
2023-12-18T05:25:01.861Z,1002.9611
2023-12-18T05:26:03.586Z,1002.9751
2023-12-18T05:27:02.060Z,1002.8862
2023-12-18T05:28:03.769Z,1003.004
2023-12-18T05:29:02.948Z,1003.1462
2023-12-18T05:30:01.390Z,1003.033
2023-12-18T05:31:03.190Z,1002.9551
2023-12-18T05:32:01.618Z,1002.8875
2023-12-18T05:33:01.728Z,1003.04
2023-12-18T05:34:01.924Z,1002.962
2023-12-18T05:35:01.953Z,1003.019
2023-12-18T05:36:03.819Z,1003.04
2023-12-18T05:37:02.146Z,1002.9198
2023-12-18T05:38:02.221Z,1003.1884
2023-12-18T05:39:01.320Z,1002.9689
2023-12-18T05:40:01.524Z,1003.033
2023-12-18T05:41:01.509Z,1003.1529
2023-12-18T05:42:01.649Z,1002.9336
2023-12-18T05:43:01.856Z,1002.9972
2023-12-18T05:44:01.828Z,1002.8091
2023-12-18T05:45:01.951Z,1002.9617
2023-12-18T05:46:03.687Z,1003.0889
2023-12-18T05:47:02.146Z,1003.0749
2023-12-18T05:48:01.322Z,1003.04
2023-12-18T05:49:03.079Z,1003.0831
2023-12-18T05:50:01.605Z,1003.2109
2023-12-18T05:51:03.207Z,1003.0411
2023-12-18T05:52:01.733Z,1003.3442
2023-12-18T05:53:01.797Z,1003.2109
2023-12-18T05:54:01.903Z,1002.991
2023-12-18T05:55:02.389Z,1002.991
2023-12-18T05:56:02.138Z,1003.0619
2023-12-18T05:57:02.251Z,1003.0828
2023-12-18T05:58:02.993Z,1003.1462
2023-12-18T05:59:01.450Z,1002.9483
2023-12-18T06:00:03.130Z,1003.0619
2023-12-18T06:01:02.981Z,1003.0264
2023-12-18T06:02:01.773Z,1003.1329
2023-12-18T06:03:01.838Z,1003.1684
2023-12-18T06:04:02.043Z,1002.9562
2023-12-18T06:05:02.049Z,1002.846
2023-12-18T06:06:02.200Z,1002.8531
2023-12-18T06:07:02.928Z,1002.9347
2023-12-18T06:08:01.371Z,1002.8738
2023-12-18T06:09:01.479Z,1002.8992
2023-12-18T06:10:03.201Z,1002.7036
2023-12-18T06:11:03.334Z,1002.7745
2023-12-18T06:12:03.479Z,1002.7466
2023-12-18T06:13:01.942Z,1002.7394
2023-12-18T06:14:02.020Z,1002.8809
2023-12-18T06:15:03.811Z,1003.0264
2023-12-18T06:16:02.248Z,1002.8383
2023-12-18T06:17:01.334Z,1002.7182
2023-12-18T06:18:01.532Z,1002.7894
2023-12-18T06:19:03.280Z,1003.0421
2023-12-18T06:20:03.322Z,1003.127
2023-12-18T06:21:01.772Z,1002.8463
2023-12-18T06:22:01.834Z,1002.7972
2023-12-18T06:23:01.930Z,1002.9431
2023-12-18T06:24:02.053Z,1002.8937
2023-12-18T06:25:02.173Z,1002.8109
2023-12-18T06:26:03.362Z,1003.0704
2023-12-18T06:27:01.373Z,1002.9435
2023-12-18T06:28:03.107Z,1002.7549
2023-12-18T06:29:01.636Z,1002.8869
2023-12-18T06:30:01.703Z,1002.6912
2023-12-18T06:31:01.939Z,1002.9077
2023-12-18T06:32:03.595Z,1002.7266
2023-12-18T06:33:03.778Z,1002.6488
2023-12-18T06:34:03.908Z,1002.7904
2023-12-18T06:35:02.313Z,1002.8822
2023-12-18T06:36:01.304Z,1002.8115
2023-12-18T06:37:01.433Z,1002.7972
2023-12-18T06:38:03.145Z,1002.951
2023-12-18T06:39:03.254Z,1003.0076
2023-12-18T06:40:01.716Z,1002.8259
2023-12-18T06:41:03.430Z,1002.7904
2023-12-18T06:42:03.657Z,1002.8797
2023-12-18T06:43:02.059Z,1003.0213
2023-12-18T06:44:03.759Z,1002.8822
2023-12-18T06:45:02.218Z,1002.7972
2023-12-18T06:46:02.952Z,1002.7904
2023-12-18T06:47:01.465Z,1002.7696
2023-12-18T06:48:03.291Z,1002.7981
2023-12-18T06:49:03.414Z,1002.876
2023-12-18T06:50:03.364Z,1002.8115
2023-12-18T06:51:03.523Z,1002.6983
2023-12-18T06:52:01.983Z,1002.7904
2023-12-18T06:53:03.686Z,1002.7478
2023-12-18T06:54:02.172Z,1002.6559
2023-12-18T06:55:02.265Z,1002.6914
2023-12-18T06:56:03.009Z,1002.8119
2023-12-18T06:57:03.084Z,1002.8255
2023-12-18T06:58:03.222Z,1002.7478
2023-12-18T06:59:01.658Z,1002.7972
2023-12-18T07:00:03.393Z,1002.9005
2023-12-18T07:01:03.633Z,1002.833
2023-12-18T07:02:02.064Z,1002.7972
2023-12-18T07:03:02.134Z,1002.7972
2023-12-18T07:04:03.934Z,1002.9571
2023-12-18T07:05:01.295Z,1002.9288
2023-12-18T07:06:01.401Z,1002.8542
2023-12-18T07:07:01.513Z,1003.0359
2023-12-18T07:08:03.242Z,1003.0643
2023-12-18T07:09:01.801Z,1002.876
2023-12-18T07:10:01.953Z,1002.8829
2023-12-18T07:11:01.912Z,1003.0145
2023-12-18T07:12:02.012Z,1002.908
2023-12-18T07:13:02.156Z,1002.9647
2023-12-18T07:14:03.855Z,1002.7904
2023-12-18T07:15:01.318Z,1002.8115
2023-12-18T07:16:03.048Z,1002.8255
2023-12-18T07:17:03.138Z,1002.9295
2023-12-18T07:18:03.290Z,1002.6991
2023-12-18T07:19:03.507Z,1002.8547
2023-12-18T07:20:03.518Z,1002.6994
2023-12-18T07:21:01.941Z,1002.6854
2023-12-18T07:22:03.687Z,1002.6363
2023-12-18T07:23:02.179Z,1002.6007
2023-12-18T07:24:02.238Z,1002.7569
2023-12-18T07:25:01.377Z,1002.6363
2023-12-18T07:26:01.419Z,1002.7424
2023-12-18T07:27:01.540Z,1002.6714
2023-12-18T07:28:03.369Z,1002.828
2023-12-18T07:29:01.723Z,1002.6367
2023-12-18T07:30:01.865Z,1002.7569
2023-12-18T07:31:02.002Z,1002.7214
2023-12-18T07:32:02.050Z,1002.8134
2023-12-18T07:33:02.254Z,1002.7355
2023-12-18T07:34:01.367Z,1002.7567
2023-12-18T07:35:01.549Z,1002.8806
2023-12-18T07:36:03.112Z,1002.7564
2023-12-18T07:37:01.599Z,1002.7635
2023-12-18T07:38:01.694Z,1003.0089
2023-12-18T07:39:01.800Z,1002.8698
2023-12-18T07:40:03.539Z,1002.8698
2023-12-18T07:41:01.997Z,1002.9021
2023-12-18T07:42:02.106Z,1002.8835
2023-12-18T07:43:02.213Z,1002.8551
2023-12-18T07:44:03.004Z,1002.9017
2023-12-18T07:45:03.093Z,1002.9089
2023-12-18T07:46:01.538Z,1002.8552
2023-12-18T07:47:03.251Z,1002.8411
2023-12-18T07:48:01.789Z,1002.9018
2023-12-18T07:49:01.937Z,1002.9017
2023-12-18T07:50:03.600Z,1002.9302
2023-12-18T07:51:02.053Z,1003.0152
2023-12-18T07:52:02.129Z,1002.9444
2023-12-18T07:53:02.216Z,1002.8766
2023-12-18T07:54:01.340Z,1002.9585
2023-12-18T07:55:01.464Z,1002.9301
2023-12-18T07:56:03.235Z,1002.9724
2023-12-18T07:57:01.648Z,1003.0151
2023-12-18T07:58:03.369Z,1002.8124
2023-12-18T07:59:01.851Z,1002.9724
2023-12-18T08:00:02.047Z,1003.0359
2023-12-18T08:01:02.195Z,1002.8943
2023-12-18T08:02:02.192Z,1002.9724
2023-12-18T08:03:01.291Z,1003.0152
2023-12-18T08:04:03.107Z,1003.0152
2023-12-18T08:05:01.477Z,1002.9301
2023-12-18T08:06:01.594Z,1002.9799
2023-12-18T08:07:01.699Z,1002.8339
2023-12-18T08:08:03.459Z,1002.9021
2023-12-18T08:09:01.895Z,1002.9025
2023-12-18T08:10:01.993Z,1002.8813
2023-12-18T08:11:02.091Z,1002.8955
2023-12-18T08:12:02.260Z,1003.0372
2023-12-18T08:13:01.326Z,1002.917
2023-12-18T08:14:01.419Z,1002.9737
2023-12-18T08:15:01.549Z,1003.0802
2023-12-18T08:16:03.278Z,1003.002
2023-12-18T08:17:03.386Z,1002.9737
2023-12-18T08:18:02.009Z,1002.9737
2023-12-18T08:19:02.094Z,1002.9668
2023-12-18T08:20:02.065Z,1003.2439
2023-12-18T08:21:02.214Z,1003.0095
2023-12-18T08:22:01.298Z,1003.1588
2023-12-18T08:23:01.625Z,1003.1588
2023-12-18T08:24:03.141Z,1003.1021
2023-12-18T08:25:01.794Z,1002.9885
2023-12-18T08:26:01.828Z,1003.0235
2023-12-18T08:27:01.925Z,1002.96
2023-12-18T08:28:02.125Z,1002.9174
2023-12-18T08:29:02.024Z,1002.9245
2023-12-18T08:30:02.098Z,1002.96
2023-12-18T08:31:03.946Z,1002.9102
2023-12-18T08:32:03.002Z,1003.1021
2023-12-18T08:33:01.491Z,1002.8287
2023-12-18T08:34:03.303Z,1002.7368
2023-12-18T08:35:01.659Z,1002.7513
2023-12-18T08:36:03.378Z,1002.7299
2023-12-18T08:37:01.852Z,1002.933
2023-12-18T08:38:02.028Z,1002.8439
2023-12-18T08:39:02.124Z,1002.7305
2023-12-18T08:40:02.177Z,1002.8585
2023-12-18T08:41:01.292Z,1002.7734
2023-12-18T08:42:01.400Z,1002.8018
2023-12-18T08:43:03.217Z,1002.9405
2023-12-18T08:44:05.701Z,1002.8729
2023-12-18T08:45:03.404Z,1002.9626
2023-12-18T08:46:03.497Z,1002.8844
2023-12-18T08:47:03.575Z,1002.927
2023-12-18T08:48:03.844Z,1003.0691
2023-12-18T08:49:02.154Z,1002.8922
2023-12-18T08:50:02.224Z,1002.9066
2023-12-18T08:51:01.345Z,1002.881
2023-12-18T08:52:03.090Z,1002.8922
2023-12-18T08:53:03.222Z,1002.8457
2023-12-18T08:54:01.645Z,1002.978
2023-12-18T08:55:03.388Z,1002.9496
2023-12-18T08:56:03.473Z,1002.8744
2023-12-18T08:57:03.579Z,1003.0915
2023-12-18T08:58:03.693Z,1002.9212
2023-12-18T08:59:02.123Z,1002.9
2023-12-18T09:00:02.258Z,1002.9356
2023-12-18T09:01:01.476Z,1002.9496
2023-12-18T09:02:01.433Z,1002.9926
2023-12-18T09:03:01.570Z,1002.8323
2023-12-18T09:04:03.374Z,1002.9717
2023-12-18T09:05:01.790Z,1003.0073
2023-12-18T09:06:01.929Z,1003.0073
2023-12-18T09:07:01.995Z,1002.812
2023-12-18T09:08:02.053Z,1002.8264
2023-12-18T09:09:03.856Z,1002.8264
2023-12-18T09:10:01.268Z,1002.8335
2023-12-18T09:11:01.369Z,1002.8264
2023-12-18T09:12:01.492Z,1002.855
2023-12-18T09:13:03.297Z,1003.0654
2023-12-18T09:14:03.354Z,1002.9097
2023-12-18T09:15:01.782Z,1002.9522
2023-12-18T09:16:03.524Z,1003.0518
2023-12-18T09:17:02.014Z,1003.2653
2023-12-18T09:18:02.128Z,1003.1801
2023-12-18T09:19:02.280Z,1003.1801
2023-12-18T09:20:02.996Z,1003.1517
2023-12-18T09:21:01.431Z,1003.1945
2023-12-18T09:22:03.013Z,1003.385
2023-12-18T09:23:01.642Z,1003.1663
2023-12-18T09:24:01.815Z,1003.1167
2023-12-18T09:25:01.854Z,1003.2235
2023-12-18T09:26:03.614Z,1003.1523
2023-12-18T09:27:02.033Z,1003.1455
2023-12-18T09:28:03.789Z,1003.0889
2023-12-18T09:29:01.306Z,1003.1246
2023-12-18T09:30:01.421Z,1003.1958
2023-12-18T09:31:01.606Z,1003.1746
2023-12-18T09:32:03.257Z,1003.004
2023-12-18T09:33:01.915Z,1003.1392
2023-12-18T09:34:01.941Z,1003.097
2023-12-18T09:35:02.040Z,1003.0759
2023-12-18T09:36:02.095Z,1003.2613
2023-12-18T09:37:02.091Z,1003.0054
2023-12-18T09:38:02.185Z,1003.2404
2023-12-18T09:39:02.908Z,1003.0413
2023-12-18T09:40:01.420Z,1002.9063
2023-12-18T09:41:03.169Z,1002.942
2023-12-18T09:42:03.272Z,1002.8854
2023-12-18T09:43:03.366Z,1003.0563
2023-12-18T09:44:01.808Z,1002.8388
2023-12-18T09:45:01.927Z,1002.7963
2023-12-18T09:46:02.028Z,1002.9858
2023-12-18T09:47:03.752Z,1002.9505
2023-12-18T09:48:02.230Z,1003.0289
2023-12-18T09:49:01.399Z,1002.9793
2023-12-18T09:50:01.457Z,1002.972
2023-12-18T09:51:01.548Z,1002.8542
2023-12-18T09:52:01.635Z,1002.8542
2023-12-18T09:53:01.776Z,1002.8188
2023-12-18T09:54:03.499Z,1002.8545
2023-12-18T09:55:02.026Z,1002.8404
2023-12-18T09:56:02.062Z,1003.0299
2023-12-18T09:57:02.150Z,1002.8479
2023-12-18T09:58:02.892Z,1003.0803
2023-12-18T09:59:03.019Z,1002.9381
2023-12-18T10:00:01.526Z,1002.7775
2023-12-18T10:01:01.667Z,1002.8886
2023-12-18T10:02:01.726Z,1002.8134
2023-12-18T10:03:01.839Z,1002.8888
2023-12-18T10:04:02.012Z,1002.8065
2023-12-18T10:05:03.692Z,1002.7568
2023-12-18T10:06:02.139Z,1002.9252
2023-12-18T10:07:03.816Z,1002.7859
2023-12-18T10:08:01.324Z,1002.6223
2023-12-18T10:09:01.428Z,1002.7791
2023-12-18T10:10:03.195Z,1002.8078
2023-12-18T10:11:01.677Z,1002.7506
2023-12-18T10:12:01.757Z,1002.7437
2023-12-18T10:13:03.496Z,1002.815
2023-12-18T10:14:01.954Z,1002.7226
2023-12-18T10:15:02.065Z,1002.8795
2023-12-18T10:16:03.876Z,1002.8585
2023-12-18T10:17:02.922Z,1002.8015
2023-12-18T10:18:03.053Z,1002.9055
2023-12-18T10:19:03.228Z,1002.7589
2023-12-18T10:20:03.524Z,1002.866
2023-12-18T10:21:03.328Z,1002.7739
2023-12-18T10:22:01.816Z,1002.6173
2023-12-18T10:23:01.938Z,1002.8597
2023-12-18T10:24:02.038Z,1002.7317
2023-12-18T10:25:02.149Z,1002.8674
2023-12-18T10:26:02.262Z,1002.6819
2023-12-18T10:27:01.317Z,1002.575
2023-12-18T10:28:01.464Z,1002.5753
2023-12-18T10:29:03.147Z,1002.6327
2023-12-18T10:30:03.287Z,1002.6828
2023-12-18T10:31:01.786Z,1002.6899
2023-12-18T10:32:01.862Z,1002.7974
2023-12-18T10:33:03.664Z,1002.7403
2023-12-18T10:34:03.698Z,1002.5551
2023-12-18T10:35:03.738Z,1002.7478
2023-12-18T10:36:02.222Z,1002.5482
2023-12-18T10:37:03.003Z,1002.5767
2023-12-18T10:38:03.131Z,1002.6122
2023-12-18T10:39:03.221Z,1002.5196
2023-12-18T10:40:03.316Z,1002.6055
2023-12-18T10:41:03.474Z,1002.5485
2023-12-18T10:42:03.502Z,1002.5485
2023-12-18T10:43:01.999Z,1002.5131
2023-12-18T10:44:02.102Z,1002.4133
2023-12-18T10:45:02.178Z,1002.5347
2023-12-18T10:46:02.929Z,1002.5562
2023-12-18T10:47:03.020Z,1002.5277
2023-12-18T10:48:01.548Z,1002.5064
2023-12-18T10:49:01.730Z,1002.5136
2023-12-18T10:50:03.362Z,1002.5638
2023-12-18T10:51:03.438Z,1002.3712
2023-12-18T10:52:03.568Z,1002.4357
2023-12-18T10:53:05.295Z,1002.3
2023-12-18T10:54:02.112Z,1002.7139
2023-12-18T10:55:02.277Z,1002.7139
2023-12-18T10:56:03.015Z,1002.7497
2023-12-18T10:57:03.060Z,1002.5857
2023-12-18T10:58:01.653Z,1002.4002
2023-12-18T10:59:01.637Z,1002.4146
2023-12-18T11:00:01.737Z,1002.4506
2023-12-18T11:01:03.558Z,1002.2225
2023-12-18T11:02:02.050Z,1002.3794
2023-12-18T11:03:02.054Z,1002.3081
2023-12-18T11:04:04.017Z,1002.408
2023-12-18T11:05:02.300Z,1002.2582
2023-12-18T11:06:01.337Z,1002.3082
2023-12-18T11:07:01.585Z,1002.2153
2023-12-18T11:08:01.564Z,1002.3082
2023-12-18T11:09:01.667Z,1002.2724
2023-12-18T11:10:01.805Z,1002.3584
2023-12-18T11:11:01.879Z,1002.4082
2023-12-18T11:12:02.021Z,1002.4084
2023-12-18T11:13:02.061Z,1002.2729
2023-12-18T11:14:02.200Z,1002.2089
2023-12-18T11:15:01.275Z,1002.2088
2023-12-18T11:16:01.405Z,1002.3375
2023-12-18T11:17:01.544Z,1002.1307
2023-12-18T11:18:03.382Z,1002.1664
2023-12-18T11:19:12.230Z,1002.2594
2023-12-18T11:20:01.997Z,1002.1095
2023-12-18T11:21:01.913Z,1002.3311
2023-12-18T11:22:03.682Z,1002.1954
2023-12-18T11:23:03.766Z,1002.3668
2023-12-18T11:24:07.192Z,1002.224
2023-12-18T11:25:02.946Z,1002.3815
2023-12-18T11:26:01.439Z,1002.5033
2023-12-18T11:27:01.562Z,1002.2533